Time;durP1;ratioP1;P1;durP2;ratioP2;P2;SDS_P1;SDS_P2;PMS_P1;PMS_P2;Temp;Humidity;BMP_temperature;BMP_pressure;BME280_temperature;BME280_humidity;BME280_pressure;Samples;Min_cycle;Max_cycle;Signal;HPM_P1;HPM_P2
2023/10/14 00:02:44;;;;;;;0.00;0.00;;;;;;;20.44;100.00;97935.38;5115159;28;20190;-58
2023/10/14 00:05:30;;;;;;;0.10;0.10;;;;;;;20.44;100.00;97940.75;5115009;28;20357;-58
2023/10/14 00:08:19;;;;;;;0.10;0.10;;;;;;;20.58;100.00;97939.03;5114873;28;20202;-58
2023/10/14 00:11:07;;;;;;;0.10;0.10;;;;;;;20.55;100.00;97936.72;5113366;28;20284;-58
2023/10/14 00:13:55;;;;;;;0.10;0.10;;;;;;;20.57;100.00;97922.06;5114674;28;20225;-58
2023/10/14 00:16:48;;;;;;;0.10;0.10;;;;;;;20.60;100.00;97923.53;5114797;28;20354;-59
2023/10/14 00:19:35;;;;;;;0.10;0.10;;;;;;;20.55;100.00;97910.63;5114879;28;20193;-59
2023/10/14 00:22:23;;;;;;;0.10;0.10;;;;;;;20.49;100.00;97903.34;5114594;28;20198;-59
2023/10/14 00:25:19;;;;;;;0.10;0.10;;;;;;;20.48;100.00;97898.19;5113417;28;20189;-58
2023/10/14 00:28:12;;;;;;;0.10;0.10;;;;;;;20.44;100.00;97881.56;5114585;28;20190;-58
2023/10/14 00:30:58;;;;;;;0.10;0.10;;;;;;;20.48;100.00;97890.09;5114292;28;20205;-58
2023/10/14 00:33:45;;;;;;;0.10;0.10;;;;;;;20.45;100.00;97882.41;5114249;28;20218;-58
2023/10/14 00:36:34;;;;;;;0.00;0.00;;;;;;;20.48;100.00;97885.56;5114487;28;20317;-58
2023/10/14 00:39:26;;;;;;;0.10;0.10;;;;;;;20.43;100.00;97871.84;5113317;28;20190;-58
2023/10/14 00:42:15;;;;;;;0.10;0.10;;;;;;;20.41;100.00;97867.66;5113280;28;20206;-58
2023/10/14 00:45:02;;;;;;;0.00;0.00;;;;;;;20.39;100.00;97867.00;5114117;28;20194;-58
2023/10/14 00:47:49;;;;;;;0.10;0.10;;;;;;;20.32;100.00;97871.50;5127738;27;20194;-58
2023/10/14 00:50:36;;;;;;;0.10;0.10;;;;;;;20.24;100.00;97867.88;5114186;28;20263;-58
2023/10/14 00:53:27;;;;;;;0.00;0.00;;;;;;;20.25;100.00;97860.66;5114018;28;20198;-58
2023/10/14 00:56:18;;;;;;;0.10;0.10;;;;;;;20.16;100.00;97865.31;5111070;28;20194;-58
2023/10/14 00:59:08;;;;;;;0.10;0.10;;;;;;;20.23;100.00;97857.34;5113019;28;20214;-58
2023/10/14 01:01:58;;;;;;;0.10;0.10;;;;;;;20.25;100.00;97845.34;5113817;28;20194;-58
2023/10/14 01:04:53;;;;;;;0.00;0.00;;;;;;;20.16;100.00;97857.25;5114010;28;20228;-58
2023/10/14 01:07:40;;;;;;;0.00;0.00;;;;;;;20.15;100.00;97855.59;5113913;28;20194;-58
2023/10/14 01:10:29;;;;;;;0.10;0.10;;;;;;;20.19;100.00;97856.06;5126256;27;20189;-58
2023/10/14 01:13:22;;;;;;;0.00;0.00;;;;;;;20.33;100.00;97846.25;5113713;28;20260;-58
2023/10/14 01:16:10;;;;;;;0.10;0.10;;;;;;;20.49;100.00;97857.63;5113894;28;20206;-58
2023/10/14 01:18:57;;;;;;;0.10;0.10;;;;;;;20.54;100.00;97851.66;5113956;28;20228;-58
2023/10/14 01:21:50;;;;;;;0.10;0.10;;;;;;;20.72;100.00;97838.56;5113615;28;20230;-58
2023/10/14 01:24:39;;;;;;;0.00;0.00;;;;;;;20.83;100.00;97826.44;5111249;28;20259;-58
2023/10/14 01:27:34;;;;;;;0.10;0.10;;;;;;;20.72;100.00;97818.91;5113767;28;20244;-58
2023/10/14 01:30:25;;;;;;;0.00;0.00;;;;;;;20.61;100.00;97809.50;5113510;28;20198;-58
2023/10/14 01:33:15;;;;;;;0.10;0.10;;;;;;;20.60;100.00;97813.22;5112870;28;20233;-58
2023/10/14 01:36:02;;;;;;;0.10;0.10;;;;;;;20.58;100.00;97813.41;5112596;28;20202;-58
2023/10/14 01:38:58;;;;;;;0.10;0.10;;;;;;;20.49;100.00;97832.59;5112418;28;20684;-58
2023/10/14 01:41:46;;;;;;;0.00;0.00;;;;;;;20.42;100.00;97816.34;5112186;28;20182;-58
2023/10/14 01:44:33;;;;;;;0.10;0.10;;;;;;;20.45;100.00;97797.16;5113322;28;20190;-58
2023/10/14 01:47:20;;;;;;;0.10;0.10;;;;;;;20.35;100.00;97802.00;5113427;28;20366;-58
2023/10/14 01:50:12;;;;;;;0.10;0.10;;;;;;;20.54;100.00;97854.34;5113311;28;20240;-58
2023/10/14 01:53:06;;;;;;;0.00;0.00;;;;;;;20.88;100.00;97817.78;5113050;28;20308;-58
2023/10/14 01:55:57;;;;;;;0.10;0.10;;;;;;;20.89;100.00;97820.28;5111829;28;20206;-58
2023/10/14 01:58:46;;;;;;;0.10;0.10;;;;;;;20.86;99.86;97817.97;5112197;28;20202;-58
2023/10/14 02:01:35;;;;;;;0.00;0.00;;;;;;;20.88;98.90;97797.06;5112064;28;20198;-58
2023/10/14 02:04:22;;;;;;;0.10;0.10;;;;;;;20.84;99.78;97798.47;5112019;28;20198;-58
2023/10/14 02:07:17;;;;;;;0.10;0.10;;;;;;;20.88;98.40;97837.44;5114394;28;20246;-58
2023/10/14 02:10:12;;;;;;;0.10;0.10;;;;;;;20.88;98.12;97815.09;5114995;28;20730;-58
2023/10/14 02:13:00;;;;;;;0.10;0.10;;;;;;;20.90;97.25;97821.94;5117059;28;20747;-58
2023/10/14 02:15:51;;;;;;;0.00;0.00;;;;;;;20.83;98.71;97829.13;5117281;28;20301;-58
2023/10/14 02:18:38;;;;;;;0.10;0.10;;;;;;;20.77;99.40;97838.81;5116152;28;20190;-58
2023/10/14 02:21:31;;;;;;;0.03;0.03;;;;;;;20.79;99.29;97827.84;5117116;28;20191;-58
2023/10/14 02:24:18;;;;;;;0.10;0.10;;;;;;;20.81;99.16;97833.88;5116062;28;20194;-58
2023/10/14 02:27:12;;;;;;;0.10;0.10;;;;;;;20.84;100.00;97831.63;5117100;28;20300;-58
2023/10/14 02:30:00;;;;;;;0.10;0.10;;;;;;;20.71;100.00;97807.31;5116936;28;20206;-58
2023/10/14 02:32:49;;;;;;;0.10;0.10;;;;;;;20.80;100.00;97826.81;5115605;28;20300;-58
2023/10/14 02:35:36;;;;;;;0.10;0.10;;;;;;;20.72;100.00;97835.88;5116769;28;20218;-58
2023/10/14 02:38:24;;;;;;;0.10;0.10;;;;;;;20.77;100.00;97817.28;5115658;28;20194;-58
2023/10/14 02:41:14;;;;;;;0.00;0.00;;;;;;;20.73;100.00;97813.31;5115250;28;20198;-58
2023/10/14 02:44:19;;;;;;;0.00;0.00;;;;;;;20.67;100.00;97797.97;5116583;28;20182;-58
2023/10/14 02:47:08;;;;;;;0.10;0.10;;;;;;;20.65;100.00;97797.31;5115607;28;20198;-58
2023/10/14 02:50:04;;;;;;;0.10;0.10;;;;;;;20.59;100.00;97779.28;5116539;28;20197;-58
2023/10/14 02:53:01;;;;;;;0.00;0.00;;;;;;;20.67;100.00;97781.81;5115350;28;20233;-58
2023/10/14 02:55:58;;;;;;;0.10;0.10;;;;;;;20.59;100.00;97768.50;5115161;28;20240;-58
2023/10/14 02:58:44;;;;;;;0.00;0.00;;;;;;;20.50;100.00;97778.59;5116140;28;20205;-58
2023/10/14 03:01:33;;;;;;;0.07;0.07;;;;;;;20.47;100.00;97776.28;5116381;28;20209;-58
2023/10/14 03:04:23;;;;;;;0.10;0.10;;;;;;;20.46;100.00;97787.22;5116488;28;20235;-58
2023/10/14 03:07:21;;;;;;;0.10;0.10;;;;;;;20.41;100.00;97786.97;5116105;28;20238;-58
2023/10/14 03:10:21;;;;;;;0.10;0.10;;;;;;;20.31;100.00;97773.84;5114982;28;20195;-57
2023/10/14 03:13:11;;;;;;;0.10;0.10;;;;;;;20.32;100.00;97780.88;5115846;28;20218;-58
2023/10/14 03:16:00;;;;;;;0.00;0.00;;;;;;;20.27;100.00;97778.78;5116120;28;20259;-58
2023/10/14 03:18:47;;;;;;;0.10;0.10;;;;;;;20.35;100.00;97776.97;5115159;28;20194;-58
2023/10/14 03:21:35;;;;;;;0.00;0.00;;;;;;;20.25;100.00;97780.81;5115746;28;20236;-58
2023/10/14 03:24:27;;;;;;;0.07;0.07;;;;;;;20.18;100.00;97779.13;5114372;28;20190;-58
2023/10/14 03:27:15;;;;;;;0.10;0.10;;;;;;;19.89;100.00;97780.06;5115861;28;20206;-58
2023/10/14 03:30:06;;;;;;;0.10;0.10;;;;;;;19.83;100.00;97795.09;5115654;28;20190;-58
2023/10/14 03:32:52;;;;;;;0.10;0.10;;;;;;;20.02;100.00;97789.09;5115507;28;20217;-58
2023/10/14 03:35:43;;;;;;;0.10;0.10;;;;;;;20.14;100.00;97796.63;5115686;28;20190;-58
2023/10/14 03:38:40;;;;;;;0.00;0.00;;;;;;;20.14;100.00;97793.94;5115679;28;20194;-58
2023/10/14 03:41:37;;;;;;;0.00;0.00;;;;;;;19.98;100.00;97803.13;5114030;28;20197;-58
2023/10/14 03:44:24;;;;;;;0.10;0.10;;;;;;;19.69;100.00;97812.09;5115335;28;20736;-58
2023/10/14 03:47:16;;;;;;;0.10;0.10;;;;;;;19.56;100.00;97818.13;5115558;28;20190;-58
2023/10/14 03:50:06;;;;;;;0.10;0.10;;;;;;;19.47;100.00;97815.72;5115419;28;20316;-58
2023/10/14 03:52:54;;;;;;;0.10;0.10;;;;;;;19.39;100.00;97825.53;5115090;28;20278;-58
2023/10/14 03:55:41;;;;;;;0.10;0.10;;;;;;;19.37;100.00;97824.88;5113975;28;20188;-58
2023/10/14 03:58:30;;;;;;;0.10;0.10;;;;;;;19.31;100.00;97830.19;5115314;28;20198;-58
2023/10/14 04:01:22;;;;;;;0.10;0.10;;;;;;;19.26;100.00;97849.53;5115045;28;20203;-58
2023/10/14 04:04:18;;;;;;;0.10;0.10;;;;;;;19.23;100.00;97823.06;5115085;28;20205;-58
2023/10/14 04:07:17;;;;;;;0.10;0.10;;;;;;;19.19;100.00;97827.13;5114926;28;20198;-58
2023/10/14 04:10:09;;;;;;;0.10;0.10;;;;;;;19.11;100.00;97828.06;5113673;28;20209;-58
2023/10/14 04:13:04;;;;;;;0.10;0.10;;;;;;;19.04;100.00;97820.94;5114819;28;20296;-58
2023/10/14 04:15:53;;;;;;;0.10;0.10;;;;;;;18.98;100.00;97829.72;5114812;28;20195;-58
2023/10/14 04:18:43;;;;;;;0.10;0.10;;;;;;;18.92;100.00;97825.94;5114853;28;20197;-58
2023/10/14 04:21:36;;;;;;;0.10;0.10;;;;;;;18.85;100.00;97828.50;5114941;28;20219;-58
2023/10/14 04:24:43;;;;;;;0.10;0.10;;;;;;;18.82;100.00;97842.28;5114372;28;20182;-58
2023/10/14 04:27:35;;;;;;;0.10;0.10;;;;;;;18.73;100.00;97858.66;5114830;28;20186;-57
2023/10/14 04:30:32;;;;;;;0.00;0.00;;;;;;;18.73;100.00;97859.47;5114342;28;20332;-58
2023/10/14 04:33:33;;;;;;;0.00;0.00;;;;;;;18.69;100.00;97857.31;5114147;28;20229;-58
2023/10/14 04:36:36;;;;;;;0.10;0.10;;;;;;;18.56;100.00;97861.44;5114680;28;20193;-58
2023/10/14 04:39:32;;;;;;;0.00;0.00;;;;;;;18.50;100.00;97867.50;5113882;28;20217;-58
2023/10/14 04:42:35;;;;;;;0.10;0.10;;;;;;;18.48;100.00;97877.59;5114541;28;20194;-58
2023/10/14 04:45:30;;;;;;;0.00;0.00;;;;;;;18.48;100.00;97876.75;5114276;28;20241;-58
2023/10/14 04:48:17;;;;;;;0.10;0.10;;;;;;;18.41;100.00;97881.97;5114212;28;20190;-58
2023/10/14 04:51:07;;;;;;;0.10;0.10;;;;;;;18.38;100.00;97871.63;5114222;28;20198;-58
2023/10/14 04:53:54;;;;;;;0.10;0.10;;;;;;;18.36;100.00;97903.16;5114010;28;20221;-58
2023/10/14 04:56:45;;;;;;;0.10;0.10;;;;;;;18.09;100.00;97914.38;5112722;28;20224;-58
2023/10/14 04:59:31;;;;;;;0.10;0.10;;;;;;;17.81;100.00;97949.66;5113967;28;20198;-58
2023/10/14 05:02:20;;;;;;;0.00;0.00;;;;;;;17.51;100.00;97970.00;5113842;28;20197;-58
2023/10/14 05:05:08;;;;;;;0.10;0.10;;;;;;;17.35;100.00;97981.56;5114000;28;20205;-58
2023/10/14 05:07:58;;;;;;;0.10;0.10;;;;;;;17.17;100.00;98018.38;5113688;28;20187;-59
2023/10/14 05:10:50;;;;;;;0.10;0.10;;;;;;;17.05;100.00;98023.22;5112623;28;20194;-59
2023/10/14 05:13:37;;;;;;;0.00;0.00;;;;;;;16.95;100.00;98029.75;5113579;28;20218;-58
2023/10/14 05:16:26;;;;;;;0.10;0.10;;;;;;;16.90;100.00;98034.78;5113489;28;20252;-59
2023/10/14 05:19:15;;;;;;;0.10;0.10;;;;;;;16.81;100.00;98036.59;5113913;28;20684;-59
2023/10/14 05:22:05;;;;;;;0.10;0.10;;;;;;;16.65;100.00;98052.56;5113729;28;20232;-59
2023/10/14 05:25:02;;;;;;;0.10;0.10;;;;;;;16.55;100.00;98055.38;5112111;28;20216;-59
2023/10/14 05:27:55;;;;;;;0.10;0.10;;;;;;;16.48;100.00;98073.06;5113682;28;20193;-59
2023/10/14 05:30:46;;;;;;;0.10;0.10;;;;;;;16.39;100.00;98082.06;5113543;28;20194;-59
2023/10/14 05:33:33;;;;;;;0.10;0.10;;;;;;;16.34;100.00;98087.06;5113219;28;20245;-59
2023/10/14 05:36:20;;;;;;;0.10;0.10;;;;;;;16.24;100.00;98104.06;5113454;28;20193;-59
2023/10/14 05:39:10;;;;;;;0.10;0.10;;;;;;;16.19;100.00;98114.38;5113329;28;20190;-59
2023/10/14 05:42:04;;;;;;;0.10;0.10;;;;;;;16.13;100.00;98119.53;5113183;28;20190;-59
2023/10/14 05:44:57;;;;;;;0.10;0.10;;;;;;;16.13;100.00;98119.53;5113458;28;20201;-59
2023/10/14 05:47:46;;;;;;;0.10;0.10;;;;;;;16.02;100.00;98134.00;5113248;28;20190;-59
2023/10/14 05:50:35;;;;;;;0.10;0.10;;;;;;;15.93;100.00;98133.09;5113276;28;20206;-59
2023/10/14 05:53:21;;;;;;;0.10;0.10;;;;;;;15.78;100.00;98144.50;5113145;28;20198;-58
2023/10/14 05:56:12;;;;;;;0.10;0.10;;;;;;;15.71;100.00;98153.13;5111759;28;20693;-59
2023/10/14 05:59:00;;;;;;;0.10;0.10;;;;;;;15.66;100.00;98173.28;5113342;28;20292;-58
2023/10/14 06:01:48;;;;;;;0.10;0.10;;;;;;;15.72;100.00;98188.66;5113036;28;20264;-59
2023/10/14 06:04:39;;;;;;;0.10;0.10;;;;;;;15.71;100.00;98203.00;5113053;28;20264;-59
2023/10/14 06:07:26;;;;;;;0.00;0.00;;;;;;;15.71;100.00;98214.53;5113012;28;20288;-58
2023/10/14 06:10:20;;;;;;;0.10;0.10;;;;;;;15.76;100.00;98223.94;5111719;28;20316;-59
2023/10/14 06:13:08;;;;;;;0.10;0.10;;;;;;;-144.59;100.00;74270.03;5113081;28;20198;-58
2023/10/14 06:16:00;;;;;;;0.10;0.10;;;;;;;15.77;100.00;98250.47;5113047;28;20195;-59
2023/10/14 06:18:47;;;;;;;0.10;0.10;;;;;;;15.76;100.00;98262.16;5112995;28;20194;-59
2023/10/14 06:21:35;;;;;;;0.10;0.10;;;;;;;15.80;100.00;98271.50;5113135;28;20255;-59
2023/10/14 06:24:23;;;;;;;0.00;0.00;;;;;;;15.73;100.00;98294.50;5112085;28;20232;-59
2023/10/14 06:27:20;;;;;;;0.10;0.10;;;;;;;15.74;100.00;98302.34;5112550;28;20198;-59
2023/10/14 06:30:18;;;;;;;0.10;0.10;;;;;;;15.84;100.00;98317.47;5113032;28;20189;-59
2023/10/14 06:33:07;;;;;;;0.10;0.10;;;;;;;15.77;100.00;98321.72;5111704;28;20190;-59
2023/10/14 06:35:54;;;;;;;0.10;0.10;;;;;;;15.74;100.00;98344.22;5112895;28;20264;-58
2023/10/14 06:38:44;;;;;;;0.10;0.10;;;;;;;15.75;100.00;98353.91;5112897;28;20238;-58
2023/10/14 06:41:31;;;;;;;0.10;0.10;;;;;;;15.81;100.00;98363.97;5111460;28;20199;-58
2023/10/14 06:44:20;;;;;;;0.10;0.10;;;;;;;15.78;100.00;98360.78;5112928;28;20191;-58
2023/10/14 06:47:08;;;;;;;0.10;0.10;;;;;;;15.77;100.00;98386.66;5112204;28;20277;-58
2023/10/14 06:49:57;;;;;;;0.10;0.10;;;;;;;15.72;100.00;98387.06;5112704;28;20205;-58
2023/10/14 06:52:44;;;;;;;0.10;0.10;;;;;;;15.64;100.00;98410.19;5112301;28;20213;-58
2023/10/14 06:55:37;;;;;;;0.10;0.10;;;;;;;15.50;100.00;98405.31;5114530;28;20230;-58
2023/10/14 06:58:23;;;;;;;0.10;0.10;;;;;;;15.16;100.00;98421.88;5116297;28;20205;-58
2023/10/14 07:01:10;;;;;;;0.10;0.10;;;;;;;15.19;100.00;98429.59;5116191;28;20197;-58
2023/10/14 07:03:57;;;;;;;0.10;0.10;;;;;;;15.24;100.00;98450.47;5116332;28;20186;-59
2023/10/14 07:06:47;;;;;;;0.10;0.10;;;;;;;15.23;100.00;98449.63;5116276;28;20186;-58
2023/10/14 07:09:35;;;;;;;0.10;0.10;;;;;;;15.31;100.00;98446.25;5114915;28;20668;-58
2023/10/14 07:12:22;;;;;;;0.10;0.10;;;;;;;15.21;100.00;98456.94;5116175;28;20193;-58
2023/10/14 07:15:12;;;;;;;0.10;0.10;;;;;;;15.48;100.00;98466.84;5115743;28;20222;-58
2023/10/14 07:17:59;;;;;;;0.10;0.10;;;;;;;15.56;100.00;98468.78;5115935;28;20195;-58
2023/10/14 07:20:46;;;;;;;0.10;0.10;;;;;;;15.64;100.00;98468.94;5116022;28;20194;-58
2023/10/14 07:23:36;;;;;;;0.10;0.10;;;;;;;15.60;100.00;98472.84;5115868;28;20194;-58
2023/10/14 07:26:29;;;;;;;0.10;0.10;;;;;;;15.55;100.00;98481.28;5114777;28;20312;-58
2023/10/14 07:29:15;;;;;;;0.10;0.10;;;;;;;15.91;100.00;98481.44;5115860;28;20324;-58
2023/10/14 07:32:02;;;;;;;0.10;0.10;;;;;;;15.58;100.00;98490.81;5115416;28;20190;-58
2023/10/14 07:34:52;;;;;;;0.10;0.10;;;;;;;15.67;100.00;98484.66;5115194;28;20249;-58
2023/10/14 07:37:42;;;;;;;0.10;0.10;;;;;;;15.51;100.00;98490.56;5115720;28;20198;-58
2023/10/14 07:40:33;;;;;;;0.10;0.10;;;;;;;15.56;100.00;98493.66;5114089;28;20252;-58
2023/10/14 07:43:20;;;;;;;0.10;0.10;;;;;;;15.79;100.00;98490.63;5115473;28;20201;-58
2023/10/14 07:46:08;;;;;;;0.10;0.10;;;;;;;15.88;100.00;98493.25;5115434;28;20181;-58
2023/10/14 07:48:55;;;;;;;0.10;0.10;;;;;;;15.83;100.00;98502.72;5115409;28;20201;-58
2023/10/14 07:51:42;;;;;;;0.10;0.10;;;;;;;15.71;100.00;98496.69;5115365;28;20684;-58
2023/10/14 07:54:30;;;;;;;0.10;0.10;;;;;;;15.71;100.00;98496.69;5113341;28;20320;-58
2023/10/14 07:57:18;;;;;;;0.10;0.10;;;;;;;15.72;100.00;98498.38;5114558;28;20205;-57
2023/10/14 08:00:12;;;;;;;0.10;0.10;;;;;;;15.69;100.00;98509.38;5114610;28;20198;-57
2023/10/14 08:03:05;;;;;;;0.10;0.10;;;;;;;15.71;100.00;98497.53;5114700;28;20198;-57
2023/10/14 08:05:53;;;;;;;0.00;0.00;;;;;;;15.70;100.00;98519.88;5114485;28;20202;-58
2023/10/14 08:08:47;;;;;;;0.00;0.00;;;;;;;15.93;100.00;98520.38;5115021;28;20224;-58
2023/10/14 08:11:37;;;;;;;0.10;0.10;;;;;;;16.12;100.00;98522.13;5113385;28;20194;-58
2023/10/14 08:14:30;;;;;;;0.10;0.10;;;;;;;15.98;100.00;98525.25;5114797;28;20191;-57
2023/10/14 08:17:18;;;;;;;0.10;0.10;;;;;;;16.00;100.00;98532.13;5114488;28;20665;-57
2023/10/14 08:20:12;;;;;;;0.10;0.10;;;;;;;15.84;100.00;98539.13;5114301;28;20921;-58
2023/10/14 08:22:59;;;;;;;0.10;0.10;;;;;;;16.19;100.00;98544.56;5114763;28;20268;-57
2023/10/14 08:25:47;;;;;;;0.10;0.10;;;;;;;16.11;100.00;98543.59;5113343;28;20194;-58
2023/10/14 08:28:33;;;;;;;0.10;0.10;;;;;;;16.04;100.00;98543.38;5114695;28;20208;-58
2023/10/14 08:31:21;;;;;;;0.10;0.10;;;;;;;16.12;100.00;98543.50;5114501;28;20248;-58
2023/10/14 08:34:09;;;;;;;0.10;0.10;;;;;;;16.05;100.00;98552.22;5114298;28;20221;-58
2023/10/14 08:36:56;;;;;;;0.10;0.10;;;;;;;16.20;100.00;98554.25;5114359;28;20268;-58
2023/10/14 08:39:44;;;;;;;0.10;0.10;;;;;;;16.42;100.00;98557.53;5112530;28;20194;-58
2023/10/14 08:42:31;;;;;;;0.10;0.10;;;;;;;16.39;99.34;98557.81;5114370;28;20198;-58
2023/10/14 08:45:21;;;;;;;0.10;0.10;;;;;;;16.30;100.00;98559.53;5114217;28;20197;-58
2023/10/14 08:48:11;;;;;;;0.10;0.10;;;;;;;16.46;98.28;98557.06;5114179;28;20206;-58
2023/10/14 08:50:58;;;;;;;0.10;0.10;;;;;;;16.55;98.69;98564.19;5112029;28;20202;-58
2023/10/14 08:53:53;;;;;;;0.10;0.10;;;;;;;16.83;99.46;98564.16;5113197;28;20198;-58
2023/10/14 08:56:43;;;;;;;0.10;0.10;;;;;;;16.87;95.51;98566.38;5111731;28;20287;-58
2023/10/14 08:59:30;;;;;;;0.10;0.10;;;;;;;17.02;93.11;98571.22;5113940;28;20193;-58
2023/10/14 09:02:17;;;;;;;0.10;0.10;;;;;;;17.02;93.97;98569.38;5113933;28;20198;-57
2023/10/14 09:05:11;;;;;;;0.10;0.10;;;;;;;17.36;90.73;98568.63;5113703;28;20206;-58
2023/10/14 09:07:58;;;;;;;0.10;0.10;;;;;;;17.17;88.24;98575.84;5113132;28;20260;-58
2023/10/14 09:10:45;;;;;;;0.10;0.10;;;;;;;16.85;90.76;98573.72;5112111;28;20229;-58
2023/10/14 09:13:33;;;;;;;0.10;0.10;;;;;;;16.65;92.99;98577.50;5113042;28;20324;-58
2023/10/14 09:16:26;;;;;;;0.00;0.00;;;;;;;16.14;98.68;98592.25;5112013;28;20700;-58
2023/10/14 09:19:15;;;;;;;0.10;0.10;;;;;;;16.78;97.84;98594.03;5113141;28;20206;-58
2023/10/14 09:22:03;;;;;;;0.10;0.10;;;;;;;17.27;94.20;98604.34;5113238;28;20212;-58
2023/10/14 09:24:51;;;;;;;0.10;0.10;;;;;;;17.02;96.33;98598.81;5112282;28;20189;-58
2023/10/14 09:27:37;;;;;;;0.10;0.10;;;;;;;16.86;93.52;98604.81;5113396;28;20194;-58
2023/10/14 09:30:24;;;;;;;0.10;0.10;;;;;;;16.69;97.49;98615.50;5113152;28;20367;-58
2023/10/14 09:33:18;;;;;;;0.10;0.10;;;;;;;18.53;86.24;98609.22;5113236;28;20229;-58
2023/10/14 09:36:11;;;;;;;0.10;0.10;;;;;;;20.50;69.50;98626.06;5112313;28;20217;-58
2023/10/14 09:39:11;;;;;;;0.00;0.00;;;;;;;23.42;52.23;98620.69;5112788;28;20588;-58
2023/10/14 09:42:00;;;;;;;0.10;0.10;;;;;;;23.57;49.69;98620.63;5112727;28;20190;-59
2023/10/14 09:44:49;;;;;;;0.10;0.10;;;;;;;24.21;45.70;98634.88;5113411;28;20203;-58
2023/10/14 09:47:37;;;;;;;0.10;0.10;;;;;;;24.15;46.73;98626.72;5113146;28;20206;-58
2023/10/14 09:50:23;;;;;;;0.00;0.00;;;;;;;21.53;50.95;98633.88;5113144;28;20182;-58
2023/10/14 09:53:13;;;;;;;0.10;0.10;;;;;;;19.92;56.69;98648.69;5113142;28;20201;-58
2023/10/14 09:56:04;;;;;;;0.10;0.10;;;;;;;18.18;67.42;98643.22;5111657;28;20233;-58
2023/10/14 09:58:54;;;;;;;0.10;0.10;;;;;;;17.60;73.46;98643.81;5113226;28;20263;-58
2023/10/14 10:01:43;;;;;;;0.10;0.10;;;;;;;17.79;79.75;98645.50;5113175;28;20228;-58
2023/10/14 10:04:35;;;;;;;0.10;0.10;;;;;;;21.09;58.54;98644.44;5112931;28;20198;-58
2023/10/14 10:07:47;;;;;;;0.10;0.10;;;;;;;23.12;50.13;98634.31;5113063;28;20190;-58
2023/10/14 10:10:36;;;;;;;0.10;0.10;;;;;;;24.79;44.80;98642.72;5111586;28;20676;-59
2023/10/14 10:13:28;;;;;;;0.10;0.10;;;;;;;26.74;40.10;98637.03;5112563;28;20202;-58
2023/10/14 10:16:17;;;;;;;0.10;0.10;;;;;;;26.05;39.31;98634.84;5112569;28;20219;-59
2023/10/14 10:19:05;;;;;;;0.10;0.10;;;;;;;27.47;36.49;98634.78;5113043;28;20198;-58
2023/10/14 10:22:15;;;;;;;0.00;0.00;;;;;;;26.32;38.22;98631.06;5113089;28;20194;-59
2023/10/14 10:25:02;;;;;;;0.00;0.00;;;;;;;25.82;38.40;98636.13;5111386;28;20215;-59
2023/10/14 10:27:49;;;;;;;0.00;0.00;;;;;;;26.85;37.38;98633.66;5113808;28;20252;-59
2023/10/14 10:30:46;;;;;;;0.00;0.00;;;;;;;27.70;35.38;98622.50;5116486;28;20194;-59
2023/10/14 10:33:55;;;;;;;0.00;0.00;;;;;;;28.58;34.99;98638.69;5116491;28;20291;-59
2023/10/14 10:36:47;;;;;;;0.10;0.10;;;;;;;28.50;34.55;98639.81;5116305;28;20708;-58
2023/10/14 10:39:35;;;;;;;0.00;0.00;;;;;;;27.82;33.90;98640.66;5115386;28;20201;-58
2023/10/14 10:42:21;;;;;;;0.00;0.00;;;;;;;26.55;35.84;98640.66;5116383;28;20186;-58
2023/10/14 10:45:10;;;;;;;0.00;0.00;;;;;;;28.12;35.41;98645.41;5116238;28;20203;-58
2023/10/14 10:48:00;;;;;;;0.00;0.00;;;;;;;26.08;36.56;98640.72;5116640;28;20237;-58
2023/10/14 10:50:51;;;;;;;0.00;0.00;;;;;;;24.35;39.73;98649.38;5116109;28;20252;-58
2023/10/14 10:53:39;;;;;;;0.00;0.00;;;;;;;23.02;43.05;98638.34;5115629;28;20230;-58
2023/10/14 10:56:28;;;;;;;0.10;0.10;;;;;;;22.21;43.73;98643.72;5114817;28;20296;-58
2023/10/14 10:59:16;;;;;;;0.10;0.10;;;;;;;20.57;44.89;98650.41;5116025;28;20190;-58
2023/10/14 11:02:02;;;;;;;0.10;0.10;;;;;;;20.86;46.25;98653.31;5115360;28;20194;-58
2023/10/14 11:04:51;;;;;;;0.10;0.10;;;;;;;20.41;49.13;98651.28;5115934;28;20190;-58
2023/10/14 11:07:38;;;;;;;0.10;0.10;;;;;;;20.41;50.89;98658.50;5116220;28;20303;-57
2023/10/14 11:10:27;;;;;;;0.10;0.10;;;;;;;20.97;50.11;98653.94;5114539;28;20209;-57
2023/10/14 11:13:16;;;;;;;0.10;0.10;;;;;;;20.63;51.07;98659.63;5114692;28;20213;-58
2023/10/14 11:16:11;;;;;;;0.10;0.10;;;;;;;23.31;46.11;98645.53;5115603;28;20189;-58
2023/10/14 11:18:59;;;;;;;0.10;0.10;;;;;;;24.09;41.34;98643.75;5115018;28;20194;-58
2023/10/14 11:21:49;;;;;;;0.10;0.10;;;;;;;25.68;37.58;98639.88;5114148;28;20641;-58
2023/10/14 11:24:36;;;;;;;0.08;0.08;;;;;;;24.05;40.53;98643.31;5113387;28;20264;-58
2023/10/14 11:27:24;;;;;;;0.00;0.00;;;;;;;26.10;38.77;98635.06;5115200;28;20235;-58
2023/10/14 11:30:12;;;;;;;0.00;0.00;;;;;;;24.14;39.95;98633.19;5115497;28;20202;-58
2023/10/14 11:32:59;;;;;;;0.00;0.00;;;;;;;21.88;45.20;98636.94;5115183;28;20190;-58
2023/10/14 11:35:49;;;;;;;0.00;0.00;;;;;;;20.67;50.50;98652.91;5115757;28;20325;-58
2023/10/14 11:38:43;;;;;;;0.10;0.10;;;;;;;19.46;53.49;98655.56;5115458;28;20228;-58
2023/10/14 11:41:31;;;;;;;0.10;0.10;;;;;;;19.15;54.38;98658.03;5113858;28;20680;-57
2023/10/14 11:44:19;;;;;;;0.10;0.10;;;;;;;19.37;54.34;98661.94;5114679;28;20195;-58
2023/10/14 11:47:06;;;;;;;0.10;0.10;;;;;;;20.73;49.87;98661.09;5115303;28;20206;-58
2023/10/14 11:49:53;;;;;;;0.10;0.10;;;;;;;20.29;49.32;98653.50;5115338;28;20256;-58
2023/10/14 11:52:42;;;;;;;0.03;0.03;;;;;;;20.53;50.70;98663.38;5115205;28;20189;-58
2023/10/14 11:55:32;;;;;;;0.10;0.10;;;;;;;21.10;48.37;98663.09;5114060;28;20263;-58
2023/10/14 11:58:19;;;;;;;0.10;0.10;;;;;;;19.79;52.47;98653.75;5115059;28;20210;-57
2023/10/14 12:01:05;;;;;;;0.10;0.10;;;;;;;20.28;52.76;98662.59;5113945;28;20189;-58
2023/10/14 12:03:53;;;;;;;0.10;0.10;;;;;;;19.76;54.94;98658.63;5115240;28;20186;-57
2023/10/14 12:06:40;;;;;;;0.10;0.10;;;;;;;19.66;55.37;98661.47;5115151;28;20185;-58
2023/10/14 12:09:28;;;;;;;0.10;0.10;;;;;;;20.58;52.98;98658.31;5113645;28;20205;-57
2023/10/14 12:12:16;;;;;;;0.10;0.10;;;;;;;20.10;52.53;98655.72;5114973;28;20685;-58
2023/10/14 12:15:05;;;;;;;0.10;0.10;;;;;;;19.72;51.51;98655.44;5114990;28;20190;-58
2023/10/14 12:17:52;;;;;;;0.10;0.10;;;;;;;20.78;50.01;98656.03;5114297;28;20290;-58
2023/10/14 12:20:39;;;;;;;0.10;0.10;;;;;;;21.06;49.80;98656.41;5114969;28;20202;-57
2023/10/14 12:23:26;;;;;;;0.10;0.10;;;;;;;20.44;52.01;98658.19;5114645;28;20193;-58
2023/10/14 12:26:16;;;;;;;0.00;0.00;;;;;;;19.79;53.68;98661.00;5113262;28;20190;-58
2023/10/14 12:29:24;;;;;;;0.10;0.10;;;;;;;19.48;53.92;98656.22;5113782;28;20201;-58
2023/10/14 12:32:15;;;;;;;0.00;0.00;;;;;;;19.31;57.08;98662.63;5114566;28;20190;-57
2023/10/14 12:35:11;;;;;;;0.10;0.10;;;;;;;19.59;57.99;98671.22;5114051;28;20230;-58
2023/10/14 12:37:59;;;;;;;0.10;0.10;;;;;;;19.31;56.00;98676.03;5114068;28;20218;-58
2023/10/14 12:40:48;;;;;;;0.10;0.10;;;;;;;18.84;58.49;98679.28;5112983;28;20194;-57
2023/10/14 12:43:37;;;;;;;0.10;0.10;;;;;;;18.42;59.35;98684.56;5114230;28;20286;-57
2023/10/14 12:46:31;;;;;;;0.10;0.10;;;;;;;17.82;63.85;98682.69;5114439;28;20206;-58
2023/10/14 12:49:22;;;;;;;0.10;0.10;;;;;;;17.68;67.18;98685.91;5114167;28;20194;-59
2023/10/14 12:52:14;;;;;;;0.10;0.10;;;;;;;19.81;58.99;98691.22;5113302;28;20259;-59
2023/10/14 12:55:13;;;;;;;0.00;0.00;;;;;;;18.91;60.41;98691.00;5112715;28;20191;-56
2023/10/14 12:58:01;;;;;;;0.10;0.10;;;;;;;18.09;63.21;98697.78;5113997;28;20213;-56
2023/10/14 13:00:48;;;;;;;0.10;0.10;;;;;;;17.64;67.00;98692.53;5113862;28;20197;-56
2023/10/14 13:03:36;;;;;;;0.10;0.10;;;;;;;17.46;69.46;98700.56;5113776;28;20193;-56
2023/10/14 13:06:24;;;;;;;0.10;0.10;;;;;;;17.37;71.29;98704.16;5113834;28;20186;-56
2023/10/14 13:09:13;;;;;;;0.10;0.10;;;;;;;17.25;75.59;98711.59;5112028;28;20194;-59
2023/10/14 13:12:00;;;;;;;0.10;0.10;;;;;;;17.32;76.34;98718.03;5113652;28;20390;-59
2023/10/14 13:14:48;;;;;;;0.10;0.10;;;;;;;17.17;70.14;98717.69;5113769;28;20197;-58
2023/10/14 13:17:36;;;;;;;0.10;0.10;;;;;;;19.14;61.21;98710.91;5113287;28;20221;-56